sensor_id;sensor_type;location;lat;lon;timestamp;pressure;altitude;pressure_sealevel;temperature;humidity
57234;BME280;43090;52.604;13.318;2022-12-18T00:01:27;102724.50;;;-4.80;100.00
57234;BME280;43090;52.604;13.318;2022-12-18T00:03:54;102725.50;;;-4.75;100.00
57234;BME280;43090;52.604;13.318;2022-12-18T00:06:21;102720.28;;;-4.75;100.00
57234;BME280;43090;52.604;13.318;2022-12-18T00:08:48;102730.06;;;-4.68;100.00
57234;BME280;43090;52.604;13.318;2022-12-18T00:11:17;102728.00;;;-4.80;100.00
57234;BME280;43090;52.604;13.318;2022-12-18T00:13:43;102731.47;;;-4.81;100.00
57234;BME280;43090;52.604;13.318;2022-12-18T00:16:11;102732.50;;;-4.74;100.00
57234;BME280;43090;52.604;13.318;2022-12-18T00:18:38;102731.88;;;-4.99;100.00
57234;BME280;43090;52.604;13.318;2022-12-18T00:21:06;102678.84;;;-5.31;100.00
57234;BME280;43090;52.604;13.318;2022-12-18T00:23:33;102728.47;;;-4.96;100.00
57234;BME280;43090;52.604;13.318;2022-12-18T00:26:01;102729.44;;;-4.93;100.00
57234;BME280;43090;52.604;13.318;2022-12-18T00:28:28;102730.53;;;-4.83;100.00
57234;BME280;43090;52.604;13.318;2022-12-18T00:31:02;102731.97;;;-4.96;100.00
57234;BME280;43090;52.604;13.318;2022-12-18T00:33:29;102737.19;;;-5.29;100.00
57234;BME280;43090;52.604;13.318;2022-12-18T00:36:00;102729.22;;;-5.36;100.00
57234;BME280;43090;52.604;13.318;2022-12-18T00:38:26;102730.84;;;-5.39;100.00
57234;BME280;43090;52.604;13.318;2022-12-18T00:40:53;102732.38;;;-5.14;100.00
57234;BME280;43090;52.604;13.318;2022-12-18T00:43:19;102732.97;;;-5.24;100.00
57234;BME280;43090;52.604;13.318;2022-12-18T00:45:46;102727.31;;;-5.08;100.00
57234;BME280;43090;52.604;13.318;2022-12-18T00:48:12;102726.97;;;-4.87;100.00
57234;BME280;43090;52.604;13.318;2022-12-18T00:50:39;102730.22;;;-5.30;100.00
57234;BME280;43090;52.604;13.318;2022-12-18T00:53:05;102725.47;;;-5.44;100.00
57234;BME280;43090;52.604;13.318;2022-12-18T00:55:32;102716.19;;;-5.34;100.00
57234;BME280;43090;52.604;13.318;2022-12-18T00:57:58;102724.63;;;-5.44;100.00
57234;BME280;43090;52.604;13.318;2022-12-18T01:00:25;102724.31;;;-5.55;100.00
57234;BME280;43090;52.604;13.318;2022-12-18T01:02:51;102725.69;;;-5.68;100.00
57234;BME280;43090;52.604;13.318;2022-12-18T01:05:18;102731.00;;;-5.65;100.00
57234;BME280;43090;52.604;13.318;2022-12-18T01:07:44;102733.81;;;-5.25;100.00
57234;BME280;43090;52.604;13.318;2022-12-18T01:10:11;102734.50;;;-5.32;100.00
57234;BME280;43090;52.604;13.318;2022-12-18T01:12:38;102736.63;;;-5.51;100.00
57234;BME280;43090;52.604;13.318;2022-12-18T01:15:05;102736.63;;;-5.51;100.00
57234;BME280;43090;52.604;13.318;2022-12-18T01:17:32;102739.94;;;-5.57;100.00
57234;BME280;43090;52.604;13.318;2022-12-18T01:19:58;102752.31;;;-5.49;100.00
57234;BME280;43090;52.604;13.318;2022-12-18T01:22:25;102762.34;;;-5.33;100.00
57234;BME280;43090;52.604;13.318;2022-12-18T01:24:51;102762.72;;;-5.19;100.00
57234;BME280;43090;52.604;13.318;2022-12-18T01:27:17;102759.22;;;-5.20;100.00
57234;BME280;43090;52.604;13.318;2022-12-18T01:29:44;102757.81;;;-5.07;100.00
57234;BME280;43090;52.604;13.318;2022-12-18T01:32:10;102762.91;;;-5.11;100.00
57234;BME280;43090;52.604;13.318;2022-12-18T01:34:37;102759.50;;;-5.09;100.00
57234;BME280;43090;52.604;13.318;2022-12-18T01:37:04;102754.63;;;-5.28;100.00
57234;BME280;43090;52.604;13.318;2022-12-18T01:39:31;102755.72;;;-5.52;100.00
57234;BME280;43090;52.604;13.318;2022-12-18T01:42:14;102761.41;;;-5.67;100.00
57234;BME280;43090;52.604;13.318;2022-12-18T01:47:24;102768.13;;;-5.45;100.00
57234;BME280;43090;52.604;13.318;2022-12-18T01:49:51;102768.88;;;-5.17;100.00
57234;BME280;43090;52.604;13.318;2022-12-18T01:52:18;102767.88;;;-5.84;100.00
57234;BME280;43090;52.604;13.318;2022-12-18T01:54:45;102767.22;;;-5.45;100.00
57234;BME280;43090;52.604;13.318;2022-12-18T01:57:12;102767.09;;;-5.18;100.00
57234;BME280;43090;52.604;13.318;2022-12-18T01:59:38;102777.47;;;-5.21;100.00
57234;BME280;43090;52.604;13.318;2022-12-18T02:02:07;102769.69;;;-5.20;100.00
57234;BME280;43090;52.604;13.318;2022-12-18T02:04:34;102777.53;;;-5.18;100.00
57234;BME280;43090;52.604;13.318;2022-12-18T02:09:53;102776.75;;;-5.47;100.00
57234;BME280;43090;52.604;13.318;2022-12-18T02:12:24;102775.09;;;-5.74;100.00
57234;BME280;43090;52.604;13.318;2022-12-18T02:17:20;102785.59;;;-5.73;100.00
57234;BME280;43090;52.604;13.318;2022-12-18T02:27:59;102779.06;;;-5.26;100.00
57234;BME280;43090;52.604;13.318;2022-12-18T02:30:28;102778.56;;;-5.45;100.00
57234;BME280;43090;52.604;13.318;2022-12-18T02:33:00;102786.28;;;-5.48;100.00
57234;BME280;43090;52.604;13.318;2022-12-18T02:35:31;102775.31;;;-5.36;100.00
57234;BME280;43090;52.604;13.318;2022-12-18T02:37:59;102780.50;;;-5.38;100.00
57234;BME280;43090;52.604;13.318;2022-12-18T02:40:26;102789.13;;;-5.71;100.00
57234;BME280;43090;52.604;13.318;2022-12-18T02:42:53;102794.56;;;-5.32;100.00
57234;BME280;43090;52.604;13.318;2022-12-18T02:45:20;102799.28;;;-5.80;100.00
57234;BME280;43090;52.604;13.318;2022-12-18T02:47:48;102799.66;;;-5.68;100.00
57234;BME280;43090;52.604;13.318;2022-12-18T02:50:26;102796.31;;;-5.63;100.00
57234;BME280;43090;52.604;13.318;2022-12-18T02:53:17;102798.97;;;-5.91;100.00
57234;BME280;43090;52.604;13.318;2022-12-18T02:58:26;102786.63;;;-5.98;100.00
57234;BME280;43090;52.604;13.318;2022-12-18T03:00:58;102797.59;;;-5.79;100.00
57234;BME280;43090;52.604;13.318;2022-12-18T03:03:29;102794.53;;;-5.64;100.00
57234;BME280;43090;52.604;13.318;2022-12-18T03:06:01;102790.03;;;-5.70;100.00
57234;BME280;43090;52.604;13.318;2022-12-18T03:08:29;102794.38;;;-5.69;100.00
57234;BME280;43090;52.604;13.318;2022-12-18T03:11:01;102796.09;;;-5.71;100.00
57234;BME280;43090;52.604;13.318;2022-12-18T03:13:30;102789.97;;;-5.72;100.00
57234;BME280;43090;52.604;13.318;2022-12-18T03:15:58;102796.88;;;-5.74;100.00
57234;BME280;43090;52.604;13.318;2022-12-18T03:18:27;102786.06;;;-5.56;100.00
57234;BME280;43090;52.604;13.318;2022-12-18T03:20:56;102791.69;;;-6.03;100.00
57234;BME280;43090;52.604;13.318;2022-12-18T03:23:25;102788.66;;;-5.86;100.00
57234;BME280;43090;52.604;13.318;2022-12-18T03:25:56;102792.09;;;-5.89;100.00
57234;BME280;43090;52.604;13.318;2022-12-18T03:28:31;102800.13;;;-5.81;100.00
57234;BME280;43090;52.604;13.318;2022-12-18T03:31:00;102792.50;;;-5.75;100.00
57234;BME280;43090;52.604;13.318;2022-12-18T03:33:53;102786.53;;;-6.01;100.00
57234;BME280;43090;52.604;13.318;2022-12-18T03:36:16;102791.59;;;-6.34;100.00
57234;BME280;43090;52.604;13.318;2022-12-18T03:38:43;102794.91;;;-5.81;100.00
57234;BME280;43090;52.604;13.318;2022-12-18T03:41:15;102801.81;;;-6.13;100.00
57234;BME280;43090;52.604;13.318;2022-12-18T03:46:15;102801.81;;;-6.13;100.00
57234;BME280;43090;52.604;13.318;2022-12-18T03:48:44;102797.19;;;-6.22;100.00
57234;BME280;43090;52.604;13.318;2022-12-18T03:51:15;102810.25;;;-6.21;100.00
57234;BME280;43090;52.604;13.318;2022-12-18T03:54:05;102802.16;;;-6.01;100.00
57234;BME280;43090;52.604;13.318;2022-12-18T03:56:30;102809.63;;;-6.41;100.00
57234;BME280;43090;52.604;13.318;2022-12-18T03:58:57;102805.25;;;-6.42;100.00
57234;BME280;43090;52.604;13.318;2022-12-18T04:01:26;102803.88;;;-6.30;100.00
57234;BME280;43090;52.604;13.318;2022-12-18T04:03:56;102796.31;;;-6.23;100.00
57234;BME280;43090;52.604;13.318;2022-12-18T04:06:23;102807.84;;;-6.42;100.00
57234;BME280;43090;52.604;13.318;2022-12-18T04:08:49;102807.66;;;-6.21;100.00
57234;BME280;43090;52.604;13.318;2022-12-18T04:11:16;102797.75;;;-6.04;100.00
57234;BME280;43090;52.604;13.318;2022-12-18T04:13:42;102813.22;;;-6.10;100.00
57234;BME280;43090;52.604;13.318;2022-12-18T04:16:09;102812.97;;;-6.17;100.00
57234;BME280;43090;52.604;13.318;2022-12-18T04:18:37;102821.00;;;-6.39;100.00
57234;BME280;43090;52.604;13.318;2022-12-18T04:21:03;102807.03;;;-6.13;100.00
57234;BME280;43090;52.604;13.318;2022-12-18T04:23:29;102818.88;;;-6.23;100.00
57234;BME280;43090;52.604;13.318;2022-12-18T04:25:56;102820.59;;;-6.24;100.00
57234;BME280;43090;52.604;13.318;2022-12-18T04:28:22;102823.16;;;-6.25;100.00
57234;BME280;43090;52.604;13.318;2022-12-18T04:30:51;102809.34;;;-6.23;100.00
57234;BME280;43090;52.604;13.318;2022-12-18T04:33:18;102810.13;;;-6.25;100.00
57234;BME280;43090;52.604;13.318;2022-12-18T04:35:45;102827.56;;;-6.50;100.00
57234;BME280;43090;52.604;13.318;2022-12-18T04:38:11;102825.06;;;-6.20;100.00
57234;BME280;43090;52.604;13.318;2022-12-18T04:40:38;102818.66;;;-6.02;100.00
57234;BME280;43090;52.604;13.318;2022-12-18T04:43:06;102830.25;;;-6.21;100.00
57234;BME280;43090;52.604;13.318;2022-12-18T04:45:32;102814.00;;;-6.12;100.00
57234;BME280;43090;52.604;13.318;2022-12-18T04:47:59;102811.69;;;-6.30;100.00
57234;BME280;43090;52.604;13.318;2022-12-18T04:50:26;102812.44;;;-6.34;100.00
57234;BME280;43090;52.604;13.318;2022-12-18T04:52:53;102806.03;;;-6.17;100.00
57234;BME280;43090;52.604;13.318;2022-12-18T04:55:19;102811.91;;;-6.24;100.00
57234;BME280;43090;52.604;13.318;2022-12-18T04:57:46;102829.47;;;-6.18;100.00
57234;BME280;43090;52.604;13.318;2022-12-18T05:00:12;102835.75;;;-6.12;100.00
57234;BME280;43090;52.604;13.318;2022-12-18T05:02:39;102846.28;;;-6.09;100.00
57234;BME280;43090;52.604;13.318;2022-12-18T05:05:05;102844.03;;;-5.98;100.00
57234;BME280;43090;52.604;13.318;2022-12-18T05:07:32;102841.72;;;-5.87;100.00
57234;BME280;43090;52.604;13.318;2022-12-18T05:09:58;102850.28;;;-5.91;100.00
57234;BME280;43090;52.604;13.318;2022-12-18T05:12:25;102852.78;;;-5.94;100.00
57234;BME280;43090;52.604;13.318;2022-12-18T05:14:51;102866.22;;;-6.11;100.00
57234;BME280;43090;52.604;13.318;2022-12-18T05:17:18;102859.50;;;-6.03;100.00
57234;BME280;43090;52.604;13.318;2022-12-18T05:19:44;102855.97;;;-6.32;100.00
57234;BME280;43090;52.604;13.318;2022-12-18T05:22:11;102855.53;;;-6.44;100.00
57234;BME280;43090;52.604;13.318;2022-12-18T05:24:38;102856.03;;;-6.56;100.00
57234;BME280;43090;52.604;13.318;2022-12-18T05:27:04;102864.38;;;-6.41;100.00
57234;BME280;43090;52.604;13.318;2022-12-18T05:29:30;102874.56;;;-6.21;100.00
57234;BME280;43090;52.604;13.318;2022-12-18T05:31:57;102884.50;;;-6.09;100.00
57234;BME280;43090;52.604;13.318;2022-12-18T05:34:23;102882.94;;;-6.04;99.73
57234;BME280;43090;52.604;13.318;2022-12-18T05:36:50;102881.69;;;-6.43;99.18
57234;BME280;43090;52.604;13.318;2022-12-18T05:39:16;102873.16;;;-6.63;100.00
57234;BME280;43090;52.604;13.318;2022-12-18T05:41:43;102874.06;;;-6.62;100.00
57234;BME280;43090;52.604;13.318;2022-12-18T05:44:09;102878.91;;;-6.47;100.00
57234;BME280;43090;52.604;13.318;2022-12-18T05:46:36;102873.47;;;-6.54;100.00
57234;BME280;43090;52.604;13.318;2022-12-18T05:49:02;102879.78;;;-6.73;100.00
57234;BME280;43090;52.604;13.318;2022-12-18T05:51:29;102883.81;;;-6.57;100.00
57234;BME280;43090;52.604;13.318;2022-12-18T05:53:55;102887.25;;;-6.58;100.00
57234;BME280;43090;52.604;13.318;2022-12-18T05:56:22;102883.84;;;-6.81;100.00
57234;BME280;43090;52.604;13.318;2022-12-18T05:58:51;102879.16;;;-6.65;100.00
57234;BME280;43090;52.604;13.318;2022-12-18T06:01:19;102887.06;;;-6.64;100.00
57234;BME280;43090;52.604;13.318;2022-12-18T06:03:46;102886.91;;;-6.43;100.00
57234;BME280;43090;52.604;13.318;2022-12-18T06:06:17;102890.63;;;-6.60;100.00
57234;BME280;43090;52.604;13.318;2022-12-18T06:08:44;102895.84;;;-6.60;100.00
57234;BME280;43090;52.604;13.318;2022-12-18T06:11:12;102887.69;;;-6.45;100.00
57234;BME280;43090;52.604;13.318;2022-12-18T06:13:38;102893.31;;;-6.83;100.00
57234;BME280;43090;52.604;13.318;2022-12-18T06:16:05;102892.25;;;-6.64;100.00
57234;BME280;43090;52.604;13.318;2022-12-18T06:18:32;102898.03;;;-6.73;100.00
57234;BME280;43090;52.604;13.318;2022-12-18T06:20:59;102899.41;;;-6.58;100.00
57234;BME280;43090;52.604;13.318;2022-12-18T06:23:25;102905.97;;;-6.44;100.00
57234;BME280;43090;52.604;13.318;2022-12-18T06:25:52;102895.66;;;-6.66;100.00
57234;BME280;43090;52.604;13.318;2022-12-18T06:28:18;102900.81;;;-6.68;100.00
57234;BME280;43090;52.604;13.318;2022-12-18T06:30:46;102907.00;;;-6.64;100.00
57234;BME280;43090;52.604;13.318;2022-12-18T06:33:13;102916.41;;;-6.44;100.00
57234;BME280;43090;52.604;13.318;2022-12-18T06:35:40;102926.56;;;-6.26;100.00
57234;BME280;43090;52.604;13.318;2022-12-18T06:38:07;102923.59;;;-6.37;100.00
57234;BME280;43090;52.604;13.318;2022-12-18T06:40:35;102933.44;;;-6.28;100.00
57234;BME280;43090;52.604;13.318;2022-12-18T06:43:02;102939.31;;;-6.59;100.00
57234;BME280;43090;52.604;13.318;2022-12-18T06:45:29;102943.41;;;-6.42;100.00
57234;BME280;43090;52.604;13.318;2022-12-18T06:47:55;102939.66;;;-6.24;100.00
57234;BME280;43090;52.604;13.318;2022-12-18T06:50:22;102936.56;;;-6.38;100.00
57234;BME280;43090;52.604;13.318;2022-12-18T06:52:48;102940.28;;;-6.57;100.00
57234;BME280;43090;52.604;13.318;2022-12-18T06:55:15;102949.78;;;-6.58;100.00
57234;BME280;43090;52.604;13.318;2022-12-18T06:57:41;102958.66;;;-6.53;100.00
57234;BME280;43090;52.604;13.318;2022-12-18T07:00:08;102952.13;;;-6.41;100.00
57234;BME280;43090;52.604;13.318;2022-12-18T07:02:35;102945.81;;;-6.48;100.00
57234;BME280;43090;52.604;13.318;2022-12-18T07:05:02;102940.13;;;-6.36;100.00
57234;BME280;43090;52.604;13.318;2022-12-18T07:07:35;102941.91;;;-6.59;100.00
57234;BME280;43090;52.604;13.318;2022-12-18T07:10:02;102943.81;;;-6.55;100.00
57234;BME280;43090;52.604;13.318;2022-12-18T07:12:28;102939.81;;;-6.70;100.00
57234;BME280;43090;52.604;13.318;2022-12-18T07:14:55;102938.41;;;-6.61;100.00
57234;BME280;43090;52.604;13.318;2022-12-18T07:17:21;102943.03;;;-6.53;100.00
57234;BME280;43090;52.604;13.318;2022-12-18T07:19:47;102955.31;;;-6.48;100.00
57234;BME280;43090;52.604;13.318;2022-12-18T07:22:14;102954.91;;;-6.85;100.00
57234;BME280;43090;52.604;13.318;2022-12-18T07:24:40;102956.72;;;-6.58;100.00
57234;BME280;43090;52.604;13.318;2022-12-18T07:27:07;102956.09;;;-6.51;100.00
57234;BME280;43090;52.604;13.318;2022-12-18T07:29:34;102959.56;;;-6.52;100.00
57234;BME280;43090;52.604;13.318;2022-12-18T07:32:00;102954.13;;;-6.32;100.00
57234;BME280;43090;52.604;13.318;2022-12-18T07:34:27;102959.16;;;-6.63;100.00
57234;BME280;43090;52.604;13.318;2022-12-18T07:36:53;102946.81;;;-6.68;100.00
57234;BME280;43090;52.604;13.318;2022-12-18T07:39:20;102948.59;;;-6.67;100.00
57234;BME280;43090;52.604;13.318;2022-12-18T07:41:47;102953.34;;;-6.30;100.00
57234;BME280;43090;52.604;13.318;2022-12-18T07:44:33;102952.31;;;-6.09;100.00
57234;BME280;43090;52.604;13.318;2022-12-18T07:46:59;102944.25;;;-6.43;100.00
57234;BME280;43090;52.604;13.318;2022-12-18T07:49:26;102956.97;;;-6.26;100.00
57234;BME280;43090;52.604;13.318;2022-12-18T07:51:53;102952.22;;;-6.38;100.00
57234;BME280;43090;52.604;13.318;2022-12-18T07:54:27;102947.09;;;-6.09;100.00
57234;BME280;43090;52.604;13.318;2022-12-18T07:56:53;102954.41;;;-6.25;100.00
57234;BME280;43090;52.604;13.318;2022-12-18T07:59:23;102954.31;;;-6.28;100.00
57234;BME280;43090;52.604;13.318;2022-12-18T08:01:52;102962.97;;;-6.03;100.00
57234;BME280;43090;52.604;13.318;2022-12-18T08:04:18;102964.38;;;-6.13;100.00
57234;BME280;43090;52.604;13.318;2022-12-18T08:06:45;102961.19;;;-6.04;100.00
57234;BME280;43090;52.604;13.318;2022-12-18T08:09:13;102962.97;;;-6.29;100.00
57234;BME280;43090;52.604;13.318;2022-12-18T08:11:40;102965.09;;;-6.17;100.00
57234;BME280;43090;52.604;13.318;2022-12-18T08:14:10;102961.03;;;-6.09;100.00
57234;BME280;43090;52.604;13.318;2022-12-18T08:16:36;102960.41;;;-6.01;100.00
57234;BME280;43090;52.604;13.318;2022-12-18T08:19:03;102966.50;;;-6.01;100.00
57234;BME280;43090;52.604;13.318;2022-12-18T08:21:30;102977.13;;;-5.95;100.00
57234;BME280;43090;52.604;13.318;2022-12-18T08:23:59;102972.19;;;-5.86;100.00
57234;BME280;43090;52.604;13.318;2022-12-18T08:26:26;102974.19;;;-6.06;100.00
57234;BME280;43090;52.604;13.318;2022-12-18T08:28:56;102969.09;;;-6.01;100.00
57234;BME280;43090;52.604;13.318;2022-12-18T08:31:24;102974.59;;;-5.92;100.00
57234;BME280;43090;52.604;13.318;2022-12-18T08:33:51;102982.47;;;-5.90;100.00
57234;BME280;43090;52.604;13.318;2022-12-18T08:36:21;102982.09;;;-6.03;100.00
57234;BME280;43090;52.604;13.318;2022-12-18T08:38:49;102983.56;;;-5.83;100.00
57234;BME280;43090;52.604;13.318;2022-12-18T08:41:16;102985.16;;;-5.89;100.00
57234;BME280;43090;52.604;13.318;2022-12-18T08:43:43;102984.56;;;-5.80;100.00
57234;BME280;43090;52.604;13.318;2022-12-18T08:46:32;102978.50;;;-5.79;100.00
57234;BME280;43090;52.604;13.318;2022-12-18T08:48:59;102983.69;;;-5.80;100.00
57234;BME280;43090;52.604;13.318;2022-12-18T08:51:26;102983.78;;;-5.77;100.00
57234;BME280;43090;52.604;13.318;2022-12-18T08:53:52;103001.72;;;-5.61;100.00
57234;BME280;43090;52.604;13.318;2022-12-18T08:56:19;103002.03;;;-5.77;100.00
57234;BME280;43090;52.604;13.318;2022-12-18T08:58:51;103001.59;;;-5.91;100.00
57234;BME280;43090;52.604;13.318;2022-12-18T09:01:17;103003.47;;;-5.87;100.00
57234;BME280;43090;52.604;13.318;2022-12-18T09:03:44;103007.69;;;-5.91;100.00
57234;BME280;43090;52.604;13.318;2022-12-18T09:06:14;103005.66;;;-5.74;100.00
57234;BME280;43090;52.604;13.318;2022-12-18T09:08:44;103005.72;;;-5.71;100.00
57234;BME280;43090;52.604;13.318;2022-12-18T09:11:19;103011.66;;;-5.49;100.00
57234;BME280;43090;52.604;13.318;2022-12-18T09:13:57;103019.81;;;-5.65;100.00
57234;BME280;43090;52.604;13.318;2022-12-18T09:16:25;103012.50;;;-5.50;100.00
57234;BME280;43090;52.604;13.318;2022-12-18T09:18:57;103014.81;;;-5.59;100.00
57234;BME280;43090;52.604;13.318;2022-12-18T09:21:28;103011.47;;;-5.55;100.00
57234;BME280;43090;52.604;13.318;2022-12-18T09:24:01;103004.75;;;-5.47;100.00
57234;BME280;43090;52.604;13.318;2022-12-18T09:26:28;103005.91;;;-5.37;100.00
57234;BME280;43090;52.604;13.318;2022-12-18T09:28:55;103018.34;;;-5.57;100.00
57234;BME280;43090;52.604;13.318;2022-12-18T09:31:22;103025.56;;;-5.50;100.00
57234;BME280;43090;52.604;13.318;2022-12-18T09:33:49;103019.34;;;-5.54;100.00
57234;BME280;43090;52.604;13.318;2022-12-18T09:36:17;103025.16;;;-5.35;100.00
57234;BME280;43090;52.604;13.318;2022-12-18T09:38:43;103017.16;;;-5.67;100.00
57234;BME280;43090;52.604;13.318;2022-12-18T09:43:44;103009.91;;;-5.76;100.00
57234;BME280;43090;52.604;13.318;2022-12-18T09:46:15;103002.19;;;-5.45;100.00
57234;BME280;43090;52.604;13.318;2022-12-18T09:48:44;103002.16;;;-5.47;100.00
57234;BME280;43090;52.604;13.318;2022-12-18T09:51:16;102994.56;;;-5.39;100.00
57234;BME280;43090;52.604;13.318;2022-12-18T09:53:47;102984.09;;;-5.12;100.00
57234;BME280;43090;52.604;13.318;2022-12-18T09:56:18;102978.19;;;-5.05;100.00
57234;BME280;43090;52.604;13.318;2022-12-18T09:59:03;102975.06;;;-5.22;100.00
57234;BME280;43090;52.604;13.318;2022-12-18T10:01:31;102967.38;;;-5.17;100.00
57234;BME280;43090;52.604;13.318;2022-12-18T10:04:08;102960.09;;;-5.27;100.00
57234;BME280;43090;52.604;13.318;2022-12-18T10:06:37;102964.75;;;-5.46;100.00
57234;BME280;43090;52.604;13.318;2022-12-18T10:14:57;102956.09;;;-5.45;100.00
57234;BME280;43090;52.604;13.318;2022-12-18T10:25:34;102966.59;;;-5.43;100.00
57234;BME280;43090;52.604;13.318;2022-12-18T10:28:14;102957.00;;;-5.14;100.00
57234;BME280;43090;52.604;13.318;2022-12-18T10:30:42;102951.25;;;-5.02;100.00
57234;BME280;43090;52.604;13.318;2022-12-18T10:33:11;102950.41;;;-5.03;99.84
57234;BME280;43090;52.604;13.318;2022-12-18T10:35:38;102943.66;;;-4.94;99.93
57234;BME280;43090;52.604;13.318;2022-12-18T10:38:29;102945.72;;;-5.13;100.00
57234;BME280;43090;52.604;13.318;2022-12-18T10:41:01;102941.13;;;-4.91;100.00
57234;BME280;43090;52.604;13.318;2022-12-18T10:48:39;102923.22;;;-4.77;100.00
57234;BME280;43090;52.604;13.318;2022-12-18T10:51:07;102920.00;;;-4.99;100.00
57234;BME280;43090;52.604;13.318;2022-12-18T10:53:38;102917.22;;;-5.05;100.00
57234;BME280;43090;52.604;13.318;2022-12-18T10:56:09;102928.06;;;-4.91;100.00
57234;BME280;43090;52.604;13.318;2022-12-18T10:58:37;102910.25;;;-4.73;100.00
57234;BME280;43090;52.604;13.318;2022-12-18T11:03:34;102905.41;;;-4.60;100.00
57234;BME280;43090;52.604;13.318;2022-12-18T11:06:27;102912.16;;;-4.67;100.00
57234;BME280;43090;52.604;13.318;2022-12-18T11:11:37;102913.28;;;-4.91;100.00
57234;BME280;43090;52.604;13.318;2022-12-18T11:14:12;102912.16;;;-4.67;100.00
57234;BME280;43090;52.604;13.318;2022-12-18T11:16:47;102917.06;;;-4.79;100.00
57234;BME280;43090;52.604;13.318;2022-12-18T11:19:38;102914.72;;;-4.69;100.00
57234;BME280;43090;52.604;13.318;2022-12-18T11:27:40;102909.53;;;-4.35;100.00
57234;BME280;43090;52.604;13.318;2022-12-18T11:32:53;102904.06;;;-4.44;100.00
57234;BME280;43090;52.604;13.318;2022-12-18T11:38:17;102907.19;;;-4.24;100.00
57234;BME280;43090;52.604;13.318;2022-12-18T11:40:46;102908.63;;;-4.00;100.00
57234;BME280;43090;52.604;13.318;2022-12-18T11:43:18;102903.56;;;-4.29;100.00
57234;BME280;43090;52.604;13.318;2022-12-18T11:48:16;102927.47;;;-4.49;100.00
57234;BME280;43090;52.604;13.318;2022-12-18T11:53:12;102929.34;;;-4.10;100.00
57234;BME280;43090;52.604;13.318;2022-12-18T12:00:57;102943.56;;;-4.33;100.00
57234;BME280;43090;52.604;13.318;2022-12-18T12:03:37;102944.47;;;-4.31;100.00
57234;BME280;43090;52.604;13.318;2022-12-18T12:06:19;102949.09;;;-4.21;100.00
57234;BME280;43090;52.604;13.318;2022-12-18T12:21:47;102948.06;;;-4.28;100.00
57234;BME280;43090;52.604;13.318;2022-12-18T12:27:10;102953.22;;;-3.96;100.00
57234;BME280;43090;52.604;13.318;2022-12-18T12:29:49;102954.69;;;-4.09;100.00
57234;BME280;43090;52.604;13.318;2022-12-18T12:32:25;102962.16;;;-4.23;100.00
57234;BME280;43090;52.604;13.318;2022-12-18T12:35:02;102961.28;;;-4.23;100.00
57234;BME280;43090;52.604;13.318;2022-12-18T12:40:02;102961.56;;;-4.12;100.00
57234;BME280;43090;52.604;13.318;2022-12-18T12:42:59;102952.69;;;-4.18;100.00
57234;BME280;43090;52.604;13.318;2022-12-18T12:48:43;102948.94;;;-4.27;100.00
57234;BME280;43090;52.604;13.318;2022-12-18T12:51:13;102940.34;;;-4.23;100.00
57234;BME280;43090;52.604;13.318;2022-12-18T12:53:42;102929.25;;;-4.48;100.00
57234;BME280;43090;52.604;13.318;2022-12-18T12:56:10;102916.66;;;-4.28;100.00
57234;BME280;43090;52.604;13.318;2022-12-18T13:02:42;102903.72;;;-4.23;100.00
57234;BME280;43090;52.604;13.318;2022-12-18T13:04:38;102904.88;;;-4.47;100.00
57234;BME280;43090;52.604;13.318;2022-12-18T13:07:12;102900.91;;;-4.31;100.00
57234;BME280;43090;52.604;13.318;2022-12-18T13:12:26;102919.50;;;-4.20;100.00
57234;BME280;43090;52.604;13.318;2022-12-18T13:15:12;102919.31;;;-4.26;100.00
57234;BME280;43090;52.604;13.318;2022-12-18T13:17:45;102906.25;;;-4.26;100.00
57234;BME280;43090;52.604;13.318;2022-12-18T13:20:12;102916.81;;;-4.23;100.00
57234;BME280;43090;52.604;13.318;2022-12-18T13:27:57;102915.91;;;-4.24;100.00
57234;BME280;43090;52.604;13.318;2022-12-18T13:35:41;102898.75;;;-4.46;100.00
57234;BME280;43090;52.604;13.318;2022-12-18T13:38:20;102905.50;;;-4.56;100.00
57234;BME280;43090;52.604;13.318;2022-12-18T13:45:58;102883.78;;;-4.53;100.00
57234;BME280;43090;52.604;13.318;2022-12-18T13:48:25;102877.75;;;-4.50;100.00
57234;BME280;43090;52.604;13.318;2022-12-18T13:51:15;102871.41;;;-4.60;100.00
57234;BME280;43090;52.604;13.318;2022-12-18T13:53:48;102877.91;;;-4.44;100.00
57234;BME280;43090;52.604;13.318;2022-12-18T13:56:32;102881.22;;;-4.16;100.00
57234;BME280;43090;52.604;13.318;2022-12-18T13:59:41;102888.16;;;-4.17;100.00
57234;BME280;43090;52.604;13.318;2022-12-18T14:01:51;102876.22;;;-4.42;100.00
57234;BME280;43090;52.604;13.318;2022-12-18T14:04:29;102861.09;;;-4.54;100.00
57234;BME280;43090;52.604;13.318;2022-12-18T14:07:03;102869.38;;;-4.37;100.00
57234;BME280;43090;52.604;13.318;2022-12-18T14:09:31;102866.59;;;-4.43;100.00
57234;BME280;43090;52.604;13.318;2022-12-18T14:12:02;102861.75;;;-4.28;100.00
57234;BME280;43090;52.604;13.318;2022-12-18T14:14:48;102867.81;;;-4.29;100.00
57234;BME280;43090;52.604;13.318;2022-12-18T14:17:18;102863.22;;;-4.39;100.00
57234;BME280;43090;52.604;13.318;2022-12-18T14:19:45;102869.94;;;-4.49;100.00
57234;BME280;43090;52.604;13.318;2022-12-18T14:22:14;102864.72;;;-4.49;100.00
57234;BME280;43090;52.604;13.318;2022-12-18T14:24:41;102853.72;;;-4.71;100.00
57234;BME280;43090;52.604;13.318;2022-12-18T14:27:22;102851.38;;;-4.93;100.00
57234;BME280;43090;52.604;13.318;2022-12-18T14:29:50;102842.28;;;-4.74;100.00
57234;BME280;43090;52.604;13.318;2022-12-18T14:32:17;102835.97;;;-4.82;100.00
57234;BME280;43090;52.604;13.318;2022-12-18T14:37:11;102827.28;;;-4.46;100.00